Time;durP1;ratioP1;P1;durP2;ratioP2;P2;SDS_P1;SDS_P2;PMS_P1;PMS_P2;Temp;Humidity;BMP_temperature;BMP_pressure;BME280_temperature;BME280_humidity;BME280_pressure;Samples;Min_cycle;Max_cycle;Signal;HPM_P1;HPM_P2
2023/04/19 00:00:28;;;;;;;17.03;5.83;;;;;;;11.29;81.11;94423.84;4991807;28;20256;-75
2023/04/19 00:02:54;;;;;;;11.17;5.47;;;;;;;11.37;81.64;94435.88;5010395;28;20168;-75
2023/04/19 00:05:22;;;;;;;14.40;7.63;;;;;;;11.43;81.89;94437.59;5011107;28;20230;-74
2023/04/19 00:07:48;;;;;;;21.90;11.77;;;;;;;11.41;81.65;94432.59;5011087;28;20695;-74
2023/04/19 00:10:13;;;;;;;12.27;6.77;;;;;;;11.43;81.29;94433.13;5011204;28;20169;-74
2023/04/19 00:12:38;;;;;;;8.83;4.83;;;;;;;11.43;80.50;94432.34;4995382;28;20283;-74
2023/04/19 00:15:05;;;;;;;11.17;5.07;;;;;;;11.33;80.79;94422.34;4999629;28;20255;-74
2023/04/19 00:17:32;;;;;;;8.03;4.67;;;;;;;11.34;81.02;94422.13;4991247;28;20227;-74
2023/04/19 00:19:57;;;;;;;10.17;4.67;;;;;;;11.38;81.35;94434.84;5000401;28;20655;-74
2023/04/19 00:22:23;;;;;;;9.87;5.17;;;;;;;11.35;81.74;94421.09;5010817;28;20183;-74
2023/04/19 00:24:48;;;;;;;6.93;3.70;;;;;;;11.36;81.93;94424.53;4995619;28;20676;-74
2023/04/19 00:27:14;;;;;;;5.17;3.37;;;;;;;11.37;81.74;94420.88;5009844;28;20230;-74
2023/04/19 00:29:39;;;;;;;5.70;2.83;;;;;;;11.38;81.54;94419.84;4997150;28;20727;-74
2023/04/19 00:32:04;;;;;;;3.40;2.90;;;;;;;11.38;82.00;94419.03;5008304;28;20192;-74
2023/04/19 00:34:30;;;;;;;3.47;2.70;;;;;;;11.37;82.10;94420.06;5010847;28;20191;-74
2023/04/19 00:36:56;;;;;;;3.37;1.97;;;;;;;11.35;82.27;94421.09;5011093;28;20180;-74
2023/04/19 00:39:22;;;;;;;3.77;2.30;;;;;;;11.34;81.99;94418.69;5010788;28;20164;-74
2023/04/19 00:41:47;;;;;;;2.53;2.00;;;;;;;11.33;82.08;94419.69;5010600;28;20338;-74
2023/04/19 00:44:12;;;;;;;3.77;2.50;;;;;;;11.34;82.27;94416.84;5010497;28;20211;-74
2023/04/19 00:46:38;;;;;;;4.37;2.43;;;;;;;11.33;82.84;94419.69;5010483;28;20310;-74
2023/04/19 00:49:04;;;;;;;3.67;2.10;;;;;;;11.29;83.04;94405.38;5014476;28;20682;-74
2023/04/19 00:51:30;;;;;;;5.93;2.53;;;;;;;11.33;82.65;94414.44;5014424;28;20281;-74
2023/04/19 00:53:57;;;;;;;4.93;3.57;;;;;;;11.34;82.72;94416.03;5001538;28;20180;-74
2023/04/19 00:56:23;;;;;;;6.73;3.40;;;;;;;11.33;82.80;94417.06;5010086;28;20185;-74
2023/04/19 00:58:49;;;;;;;5.70;3.30;;;;;;;11.35;83.14;94407.91;4995217;28;20255;-74
2023/04/19 01:01:15;;;;;;;6.50;3.33;;;;;;;11.30;82.86;94413.06;5025120;28;20271;-74
2023/04/19 01:03:40;;;;;;;6.30;3.03;;;;;;;11.31;83.09;94413.88;5014395;28;20184;-74
2023/04/19 01:06:05;;;;;;;5.47;2.23;;;;;;;11.32;82.93;94407.59;5014687;28;20182;-74
2023/04/19 01:08:31;;;;;;;5.13;2.63;;;;;;;11.27;82.76;94404.81;5014384;28;20187;-74
2023/04/19 01:10:56;;;;;;;2.40;2.10;;;;;;;11.19;82.93;94384.06;5029079;28;20259;-74
2023/04/19 01:13:22;;;;;;;3.07;2.27;;;;;;;11.21;83.22;94390.72;5013878;28;20204;-74
2023/04/19 01:15:47;;;;;;;3.50;2.13;;;;;;;11.20;82.90;94396.22;5029236;28;20191;-74
2023/04/19 01:18:13;;;;;;;3.60;2.30;;;;;;;11.21;83.66;94400.44;5028761;28;20449;-74
2023/04/19 01:20:38;;;;;;;4.70;2.13;;;;;;;11.21;83.98;94403.09;5014309;28;20565;-74
2023/04/19 01:23:04;;;;;;;2.93;2.60;;;;;;;11.23;83.52;94403.66;5003117;28;20574;-74
2023/04/19 01:25:29;;;;;;;2.70;2.50;;;;;;;11.24;83.52;94402.66;5008561;28;20165;-74
2023/04/19 01:27:55;;;;;;;2.70;2.10;;;;;;;11.29;83.18;94397.50;5004968;28;20193;-74
2023/04/19 01:30:20;;;;;;;3.03;2.20;;;;;;;11.24;83.16;94398.16;4994384;28;20451;-75
2023/04/19 01:32:46;;;;;;;2.27;1.77;;;;;;;11.11;83.28;94379.91;5010181;28;20243;-75
2023/04/19 01:35:11;;;;;;;2.80;1.90;;;;;;;11.23;83.65;94399.22;5011583;28;20384;-75
2023/04/19 01:37:37;;;;;;;4.30;2.13;;;;;;;11.18;83.71;94396.44;5000480;28;20188;-75
2023/04/19 01:40:04;;;;;;;3.20;1.80;;;;;;;11.18;83.48;94406.16;5002621;28;20188;-75
2023/04/19 01:42:30;;;;;;;2.77;2.10;;;;;;;11.00;83.75;94366.72;5006299;28;20216;-75
2023/04/19 01:44:55;;;;;;;2.10;1.90;;;;;;;11.19;83.70;94398.03;5014156;28;20176;-75
2023/04/19 01:47:21;;;;;;;1.83;1.57;;;;;;;11.18;84.04;94395.63;5007005;28;20176;-75
2023/04/19 01:49:46;;;;;;;1.60;1.50;;;;;;;11.10;83.90;94394.13;5013832;28;20172;-75
2023/04/19 01:52:12;;;;;;;3.40;1.80;;;;;;;11.01;84.20;94371.75;5012826;28;20204;-75
2023/04/19 01:54:37;;;;;;;2.40;2.20;;;;;;;11.04;84.39;94396.84;4994859;28;20430;-75
2023/04/19 01:57:03;;;;;;;3.40;1.90;;;;;;;11.03;84.19;94398.69;5002380;28;20173;-75
2023/04/19 01:59:28;;;;;;;2.93;1.90;;;;;;;11.01;84.50;94392.03;5009189;28;20493;-75
2023/04/19 02:01:53;;;;;;;2.93;2.27;;;;;;;10.87;84.59;94394.06;5001914;28;20818;-75
2023/04/19 02:04:20;;;;;;;2.40;2.20;;;;;;;10.87;84.67;94391.41;5007380;28;20176;-75
2023/04/19 02:06:46;;;;;;;3.13;1.70;;;;;;;10.87;84.85;94394.06;4996420;28;20676;-75
2023/04/19 02:09:11;;;;;;;2.57;2.07;;;;;;;10.90;84.52;94401.47;5002123;28;20236;-75
2023/04/19 02:11:37;;;;;;;4.40;2.40;;;;;;;10.73;84.79;94374.97;5002150;28;20664;-75
2023/04/19 02:14:03;;;;;;;2.57;2.33;;;;;;;10.82;85.47;94396.53;5012227;28;20165;-75
2023/04/19 02:16:29;;;;;;;2.57;2.00;;;;;;;10.86;85.17;94395.06;5013161;28;20251;-75
2023/04/19 02:18:54;;;;;;;2.60;2.40;;;;;;;10.86;84.95;94395.88;4997762;28;20231;-75
2023/04/19 02:21:19;;;;;;;2.73;2.10;;;;;;;10.86;84.97;94393.25;5012205;28;20255;-75
2023/04/19 02:23:45;;;;;;;5.03;2.57;;;;;;;10.84;84.77;94392.66;5007766;28;20181;-74
2023/04/19 02:26:11;;;;;;;2.50;2.30;;;;;;;10.87;85.05;94394.06;5002104;28;20643;-75
2023/04/19 02:28:38;;;;;;;3.20;2.40;;;;;;;10.88;85.11;94390.41;5001103;28;20257;-75
2023/04/19 02:31:05;;;;;;;3.17;2.53;;;;;;;10.80;85.07;94388.88;5009163;28;20664;-75
2023/04/19 02:33:31;;;;;;;2.63;2.23;;;;;;;10.83;85.35;94388.41;5012927;28;20207;-75
2023/04/19 02:35:56;;;;;;;3.60;2.67;;;;;;;10.86;85.16;94384.53;4999639;28;20169;-75
2023/04/19 02:38:22;;;;;;;4.73;3.00;;;;;;;10.76;85.44;94377.19;5009178;28;20427;-75
2023/04/19 02:40:47;;;;;;;5.33;2.50;;;;;;;10.70;85.63;94378.09;5012690;28;20216;-75
2023/04/19 02:43:13;;;;;;;3.10;2.67;;;;;;;10.75;85.53;94391.38;4997798;28;20238;-74
2023/04/19 02:45:38;;;;;;;3.30;2.33;;;;;;;10.79;85.37;94387.28;5011594;28;20234;-75
2023/04/19 02:48:04;;;;;;;4.07;2.75;;;;;;;10.71;85.24;94363.09;5012077;28;20833;-75
2023/04/19 02:50:32;;;;;;;3.20;2.43;;;;;;;10.83;85.13;94383.16;5012528;28;20230;-75
2023/04/19 02:52:57;;;;;;;3.00;2.40;;;;;;;10.84;84.75;94383.97;5012612;28;20196;-75
2023/04/19 02:55:23;;;;;;;4.07;3.17;;;;;;;10.80;84.98;94380.19;5012600;28;20246;-75
2023/04/19 02:57:48;;;;;;;3.67;2.50;;;;;;;10.79;85.25;94382.00;5012395;28;20180;-75
2023/04/19 03:00:14;;;;;;;4.43;2.70;;;;;;;10.79;84.62;94379.38;5012191;28;20184;-74
2023/04/19 03:02:42;;;;;;;3.23;2.40;;;;;;;10.75;84.60;94383.47;5012389;28;20180;-74
2023/04/19 03:05:08;;;;;;;3.90;3.10;;;;;;;10.47;85.27;94359.53;5010967;28;20410;-74
2023/04/19 03:07:34;;;;;;;3.87;2.90;;;;;;;10.62;85.23;94383.66;5012042;28;20172;-74
2023/04/19 03:09:59;;;;;;;4.93;3.30;;;;;;;10.62;85.24;94380.22;5008708;28;20195;-74
2023/04/19 03:12:25;;;;;;;3.37;3.07;;;;;;;10.66;85.51;94381.38;5006250;28;20331;-74
2023/04/19 03:14:50;;;;;;;6.27;3.20;;;;;;;10.66;85.77;94381.38;5009579;28;20557;-74
2023/04/19 03:17:16;;;;;;;4.13;2.90;;;;;;;10.65;85.07;94377.94;5005171;28;20207;-75
2023/04/19 03:19:41;;;;;;;4.40;3.60;;;;;;;10.54;85.79;94379.50;5003854;28;20787;-74
2023/04/19 03:22:06;;;;;;;3.77;2.60;;;;;;;10.61;85.27;94384.69;5012102;28;20201;-75
2023/04/19 03:24:32;;;;;;;5.03;2.73;;;;;;;10.66;84.83;94376.91;5000079;28;20541;-75
2023/04/19 03:26:57;;;;;;;6.17;3.10;;;;;;;10.64;84.56;94381.59;5008307;28;20202;-75
2023/04/19 03:29:23;;;;;;;3.33;2.63;;;;;;;10.64;84.71;94378.94;5008961;28;20208;-75
2023/04/19 03:31:49;;;;;;;3.83;2.80;;;;;;;10.61;84.95;94379.41;4994711;28;20436;-75
2023/04/19 03:34:14;;;;;;;3.30;3.00;;;;;;;10.62;84.89;94386.28;5003686;28;20181;-74
2023/04/19 03:36:40;;;;;;;4.07;2.83;;;;;;;10.55;84.55;94364.53;5011795;28;20610;-75
2023/04/19 03:39:06;;;;;;;2.67;2.33;;;;;;;10.62;84.76;94385.47;5011611;28;20231;-75
2023/04/19 03:41:31;;;;;;;3.13;2.70;;;;;;;10.62;84.52;94386.28;5011374;28;20664;-75
2023/04/19 03:43:57;;;;;;;2.93;2.63;;;;;;;10.62;84.47;94386.28;5011472;28;20199;-75
2023/04/19 03:46:23;;;;;;;3.07;2.70;;;;;;;10.62;84.63;94374.97;4994403;28;20268;-76
2023/04/19 03:48:48;;;;;;;4.33;2.87;;;;;;;10.62;84.57;94386.28;4991956;28;20722;-76
2023/04/19 03:51:15;;;;;;;2.77;2.43;;;;;;;10.53;84.75;94370.00;5007273;28;20180;-75
2023/04/19 03:53:40;;;;;;;3.97;3.30;;;;;;;10.53;85.67;94385.00;5009875;28;20429;-74
2023/04/19 03:56:06;;;;;;;4.15;3.55;;;;;;;10.46;86.14;94379.00;5010449;28;20415;-74
2023/04/19 03:58:32;;;;;;;5.53;3.77;;;;;;;10.54;85.67;94379.50;5011215;28;20457;-76
2023/04/19 04:00:58;;;;;;;4.70;4.05;;;;;;;10.57;85.70;94380.88;4999558;28;20495;-76
2023/04/19 04:03:24;;;;;;;3.43;2.83;;;;;;;10.62;85.47;94381.03;4992303;28;20176;-75
2023/04/19 04:05:49;;;;;;;2.97;2.67;;;;;;;10.61;85.26;94375.97;5009493;28;20445;-75
2023/04/19 04:08:14;;;;;;;3.53;2.63;;;;;;;10.62;85.48;94388.13;5009969;28;20509;-75
2023/04/19 04:10:40;;;;;;;4.07;2.97;;;;;;;10.67;85.13;94381.16;5003005;28;20421;-75
2023/04/19 04:13:05;;;;;;;2.87;2.67;;;;;;;10.68;84.95;94381.94;4991825;28;20620;-75
2023/04/19 04:15:31;;;;;;;3.47;2.80;;;;;;;10.64;84.64;94384.22;4991371;28;20436;-75
2023/04/19 04:17:56;;;;;;;3.20;2.90;;;;;;;10.45;85.37;94385.28;5008464;28;20480;-74
2023/04/19 04:20:21;;;;;;;4.93;3.93;;;;;;;10.40;85.86;94383.31;5010097;28;20503;-75
2023/04/19 04:22:47;;;;;;;5.77;4.10;;;;;;;10.47;86.42;94389.28;5009686;28;20572;-75
2023/04/19 04:25:15;;;;;;;3.67;3.20;;;;;;;10.61;86.37;94386.50;5001187;28;20173;-76
2023/04/19 04:27:42;;;;;;;3.00;2.70;;;;;;;10.55;85.58;94369.78;5011315;28;20188;-76
2023/04/19 04:30:09;;;;;;;4.13;3.20;;;;;;;10.62;85.13;94383.66;5001156;28;20235;-75
2023/04/19 04:32:34;;;;;;;6.38;4.32;;;;;;;10.52;85.47;94373.66;4990334;28;21009;-75
2023/04/19 04:35:05;;;;;;;5.17;3.77;;;;;;;10.66;85.14;94408.50;4991713;28;20183;-75
2023/04/19 04:37:33;;;;;;;5.45;3.40;;;;;;;10.53;85.12;94392.88;4990898;28;20534;-76
2023/04/19 04:40:05;;;;;;;4.20;3.20;;;;;;;10.57;85.55;94405.38;5000265;28;20184;-76
2023/04/19 04:42:32;;;;;;;6.10;3.33;;;;;;;10.45;86.22;94396.63;4989887;28;20452;-75
2023/04/19 04:45:00;;;;;;;5.27;3.10;;;;;;;10.52;85.56;94399.97;5006810;28;20191;-75
2023/04/19 04:47:33;;;;;;;3.27;2.97;;;;;;;10.56;85.78;94397.69;5010319;28;20610;-74
2023/04/19 04:49:59;;;;;;;4.50;4.05;;;;;;;10.50;85.84;94396.75;5003616;28;20423;-74
2023/04/19 04:52:24;;;;;;;4.07;2.90;;;;;;;10.59;85.16;94398.06;4991053;28;20201;-73
2023/04/19 04:54:50;;;;;;;12.77;6.70;;;;;;;10.58;85.17;94403.53;4990590;28;20512;-74
2023/04/19 04:57:15;;;;;;;4.32;3.55;;;;;;;10.54;85.22;94402.38;5006810;28;20497;-74
2023/04/19 04:59:41;;;;;;;5.93;4.05;;;;;;;10.47;85.53;94397.19;5010064;28;20445;-74
2023/04/19 05:02:06;;;;;;;10.93;5.00;;;;;;;10.43;85.40;94395.22;5010597;28;20222;-74
2023/04/19 05:04:32;;;;;;;7.10;4.50;;;;;;;10.50;85.73;94401.22;5009154;28;20503;-74
2023/04/19 05:06:57;;;;;;;6.47;4.40;;;;;;;10.48;85.74;94398.78;5010261;28;20173;-74
2023/04/19 05:09:23;;;;;;;6.40;4.63;;;;;;;10.55;85.97;94404.00;5009235;28;20967;-75
2023/04/19 05:11:48;;;;;;;7.37;4.80;;;;;;;10.63;85.20;94408.94;5010729;28;20201;-74
2023/04/19 05:14:13;;;;;;;6.80;3.60;;;;;;;10.56;85.21;94403.75;5002598;28;20173;-74
2023/04/19 05:16:39;;;;;;;9.03;5.47;;;;;;;10.53;85.77;94413.94;5009924;28;20406;-75
2023/04/19 05:19:04;;;;;;;5.23;3.93;;;;;;;10.56;85.72;94408.22;5006255;28;20176;-75
2023/04/19 05:21:31;;;;;;;8.07;4.13;;;;;;;10.57;85.93;94409.81;5009423;28;20447;-75
2023/04/19 05:23:57;;;;;;;6.35;4.15;;;;;;;10.54;86.14;94411.09;5008872;28;20426;-75
2023/04/19 05:26:22;;;;;;;6.50;4.30;;;;;;;10.67;86.03;94412.75;5008049;28;20452;-74
2023/04/19 05:28:47;;;;;;;9.23;5.13;;;;;;;10.75;85.26;94412.44;5010178;28;20187;-75
2023/04/19 05:31:13;;;;;;;7.30;3.50;;;;;;;10.53;85.40;94385.78;5010738;28;20255;-75
2023/04/19 05:33:38;;;;;;;7.40;4.10;;;;;;;10.53;85.71;94385.78;5010390;28;20806;-74
2023/04/19 05:36:04;;;;;;;8.30;4.97;;;;;;;10.69;85.25;94415.97;5012874;28;20434;-74
2023/04/19 05:38:29;;;;;;;5.53;4.00;;;;;;;10.70;85.56;94414.94;4998910;28;20888;-75
2023/04/19 05:40:55;;;;;;;5.33;3.73;;;;;;;10.72;85.35;94419.97;4994096;28;20263;-74
2023/04/19 05:43:20;;;;;;;8.33;3.90;;;;;;;10.77;85.23;94420.91;5002384;28;20169;-74
2023/04/19 05:45:46;;;;;;;7.15;4.13;;;;;;;10.78;85.50;94412.00;5008100;28;20829;-74
2023/04/19 05:48:11;;;;;;;5.13;4.03;;;;;;;10.77;85.81;94418.28;5013800;28;20718;-75
2023/04/19 05:50:37;;;;;;;4.73;3.57;;;;;;;10.87;85.49;94413.28;5010305;28;20569;-74
2023/04/19 05:53:03;;;;;;;3.63;3.30;;;;;;;10.88;85.07;94403.56;5013270;28;20207;-74
2023/04/19 05:55:28;;;;;;;11.10;3.77;;;;;;;11.03;85.19;94418.94;5013733;28;20168;-74
2023/04/19 05:57:54;;;;;;;6.37;3.90;;;;;;;10.91;85.57;94388.09;5013516;28;20187;-74
2023/04/19 06:00:20;;;;;;;6.97;3.80;;;;;;;10.97;85.33;94386.41;5013504;28;21076;-74
2023/04/19 06:02:45;;;;;;;4.80;3.50;;;;;;;11.12;85.12;94401.78;5000523;28;20256;-74
2023/04/19 06:05:13;;;;;;;5.93;3.73;;;;;;;11.18;84.78;94400.88;4993693;28;20173;-75
2023/04/19 06:07:38;;;;;;;6.10;3.90;;;;;;;11.28;84.73;94401.94;4993969;28;20199;-74
2023/04/19 06:10:05;;;;;;;4.00;3.10;;;;;;;11.36;84.52;94416.63;5008392;28;20701;-74
2023/04/19 06:12:30;;;;;;;6.97;3.60;;;;;;;11.44;84.08;94432.13;5013307;28;20266;-75
2023/04/19 06:14:55;;;;;;;5.07;3.50;;;;;;;11.33;83.92;94422.34;5002744;28;20176;-74
2023/04/19 06:17:24;;;;;;;5.20;3.20;;;;;;;11.27;83.87;94426.69;4997276;28;20205;-74
2023/04/19 06:19:50;;;;;;;4.53;3.23;;;;;;;11.26;84.02;94425.09;5013047;28;20161;-75
2023/04/19 06:22:16;;;;;;;4.97;3.00;;;;;;;11.24;84.08;94410.53;5013144;28;20200;-74
2023/04/19 06:24:44;;;;;;;4.00;3.20;;;;;;;11.45;83.74;94425.81;5013272;28;20179;-75
2023/04/19 06:27:10;;;;;;;3.10;2.57;;;;;;;11.55;83.14;94423.44;5011959;28;20220;-75
2023/04/19 06:29:35;;;;;;;3.43;2.77;;;;;;;11.60;82.75;94428.81;5004712;28;20259;-75
2023/04/19 06:32:00;;;;;;;5.00;2.70;;;;;;;11.68;83.19;94427.66;5013101;28;20287;-75
2023/04/19 06:34:26;;;;;;;5.17;3.67;;;;;;;11.64;82.53;94432.63;5013275;28;20222;-75
2023/04/19 06:36:51;;;;;;;3.73;2.63;;;;;;;11.67;82.10;94431.38;5012839;28;20256;-75
2023/04/19 06:39:16;;;;;;;7.33;3.30;;;;;;;11.56;82.81;94411.88;5013056;28;20690;-75
2023/04/19 06:41:42;;;;;;;4.40;3.50;;;;;;;11.68;82.52;94428.47;5012702;28;20208;-75
2023/04/19 06:44:07;;;;;;;4.93;3.90;;;;;;;11.73;82.69;94433.88;5001694;28;20228;-74
2023/04/19 06:46:33;;;;;;;5.50;3.80;;;;;;;11.72;82.73;94434.91;5001352;28;20760;-75
2023/04/19 06:48:58;;;;;;;5.67;3.70;;;;;;;11.87;82.09;94436.31;5010773;28;20173;-75
2023/04/19 06:51:23;;;;;;;3.67;3.07;;;;;;;11.94;81.83;94439.66;5012615;28;20620;-75
2023/04/19 06:53:49;;;;;;;3.80;3.17;;;;;;;11.94;81.67;94426.44;4995620;28;20183;-75
2023/04/19 06:56:15;;;;;;;5.60;3.50;;;;;;;12.07;81.48;94442.88;5012052;28;20173;-75
2023/04/19 06:58:40;;;;;;;9.20;4.93;;;;;;;12.07;80.86;94440.22;5012778;28;20168;-75
2023/04/19 07:01:06;;;;;;;5.40;3.50;;;;;;;12.07;81.28;94437.59;5012121;28;20176;-76
2023/04/19 07:03:32;;;;;;;6.60;4.27;;;;;;;12.14;81.28;94445.38;5007373;28;20173;-75
2023/04/19 07:05:57;;;;;;;5.33;3.20;;;;;;;12.19;81.38;94445.50;5000556;28;20218;-74
2023/04/19 07:08:23;;;;;;;6.87;4.00;;;;;;;12.18;81.68;94432.53;4994307;28;20184;-76
2023/04/19 07:10:49;;;;;;;8.63;5.37;;;;;;;12.31;81.09;94445.47;4993381;28;20174;-76
2023/04/19 07:13:14;;;;;;;9.97;4.30;;;;;;;12.32;81.20;94444.47;5001885;28;20196;-76
2023/04/19 07:15:40;;;;;;;6.23;3.27;;;;;;;12.26;80.65;94455.94;5012507;28;20168;-76
2023/04/19 07:18:05;;;;;;;11.17;4.80;;;;;;;12.28;80.32;94440.69;4993277;28;20177;-76
2023/04/19 07:20:31;;;;;;;4.23;3.03;;;;;;;12.35;80.15;94451.91;4992742;28;20181;-76
2023/04/19 07:22:57;;;;;;;6.10;3.60;;;;;;;12.36;80.33;94443.78;4998402;28;20722;-76
2023/04/19 07:25:23;;;;;;;16.90;4.63;;;;;;;12.45;80.54;94447.63;5012691;28;20952;-76
2023/04/19 07:27:48;;;;;;;5.97;3.17;;;;;;;12.46;79.64;94451.88;5012609;28;20165;-75
2023/04/19 07:30:14;;;;;;;9.80;3.83;;;;;;;12.48;80.27;94446.38;5027282;28;20179;-76
2023/04/19 07:32:39;;;;;;;6.40;3.57;;;;;;;12.52;80.54;94454.66;5026993;28;20291;-76
2023/04/19 07:35:05;;;;;;;6.37;4.10;;;;;;;12.57;79.26;94452.91;4998941;28;20169;-75
2023/04/19 07:37:31;;;;;;;8.10;3.10;;;;;;;12.57;79.40;94452.09;5000435;28;20251;-75
2023/04/19 07:39:56;;;;;;;6.23;4.23;;;;;;;12.52;79.80;94436.97;5000767;28;20187;-76
2023/04/19 07:42:22;;;;;;;12.07;4.63;;;;;;;12.57;79.26;94450.25;5007279;28;20258;-76
2023/04/19 07:44:47;;;;;;;7.00;4.37;;;;;;;12.45;79.46;94437.06;5012564;28;20184;-77
2023/04/19 07:47:13;;;;;;;7.03;3.90;;;;;;;12.45;79.84;94450.28;5012207;28;20184;-76
2023/04/19 07:49:38;;;;;;;6.33;3.93;;;;;;;12.52;80.49;94450.19;5011397;28;20223;-76
2023/04/19 07:52:06;;;;;;;6.93;3.73;;;;;;;12.63;79.49;94448.53;5007884;28;20738;-75
2023/04/19 07:54:32;;;;;;;4.57;3.30;;;;;;;12.75;79.42;94451.94;4996502;28;20177;-75
2023/04/19 07:56:57;;;;;;;3.47;2.87;;;;;;;12.88;78.99;94449.06;5000599;28;20679;-77
2023/04/19 07:59:23;;;;;;;5.13;3.03;;;;;;;12.97;78.00;94446.84;4998976;28;20173;-76
2023/04/19 08:01:49;;;;;;;4.97;2.87;;;;;;;13.01;77.29;94455.88;5006878;28;20172;-76
2023/04/19 08:04:15;;;;;;;4.50;3.40;;;;;;;13.07;76.87;94457.59;4998010;28;20195;-77
2023/04/19 08:06:41;;;;;;;6.73;3.60;;;;;;;13.07;76.97;94457.59;4998588;28;20230;-77
2023/04/19 08:09:06;;;;;;;3.47;2.40;;;;;;;13.10;75.57;94454.47;5002701;28;20172;-77
2023/04/19 08:11:32;;;;;;;4.53;2.57;;;;;;;13.12;76.18;94455.84;5002623;28;20157;-75
2023/04/19 08:13:57;;;;;;;5.53;3.33;;;;;;;13.10;76.39;94455.28;5007943;28;20679;-76
2023/04/19 08:16:23;;;;;;;6.10;3.30;;;;;;;13.12;76.70;94460.34;5002902;28;20576;-76
2023/04/19 08:18:50;;;;;;;5.47;3.30;;;;;;;13.22;76.54;94447.34;5005298;28;20176;-77
2023/04/19 08:21:16;;;;;;;3.40;2.80;;;;;;;13.25;76.53;94448.69;5002568;28;20165;-77
2023/04/19 08:23:41;;;;;;;7.13;3.33;;;;;;;13.24;76.71;94450.53;5003752;28;20180;-76
2023/04/19 08:26:07;;;;;;;7.60;4.20;;;;;;;13.26;76.12;94451.09;5017187;28;20255;-76
2023/04/19 08:28:32;;;;;;;5.87;2.90;;;;;;;13.17;75.46;94455.97;4999208;28;20244;-74
2023/04/19 08:30:58;;;;;;;3.77;2.13;;;;;;;13.18;75.19;94454.94;4991824;28;20204;-76
2023/04/19 08:33:23;;;;;;;3.60;2.40;;;;;;;13.23;75.24;94448.16;5003610;28;20197;-75
2023/04/19 08:35:49;;;;;;;8.17;3.80;;;;;;;13.20;76.04;94444.94;5003832;28;20177;-75
2023/04/19 08:38:14;;;;;;;11.63;3.53;;;;;;;13.26;74.81;94455.59;5003779;28;20177;-75
2023/04/19 08:40:51;;;;;;;7.43;4.03;;;;;;;13.24;75.05;94445.25;5005674;28;20251;-75
2023/04/19 08:43:18;;;;;;;4.53;3.10;;;;;;;13.29;74.83;94445.34;5006662;28;20723;-77
2023/04/19 08:45:46;;;;;;;6.43;3.90;;;;;;;13.37;75.00;94429.09;5003310;28;20168;-76
2023/04/19 08:48:14;;;;;;;6.73;4.17;;;;;;;13.49;74.02;94431.69;5006528;28;20172;-77
2023/04/19 08:50:47;;;;;;;4.63;3.23;;;;;;;13.54;74.93;94437.84;4999978;28;20219;-76
2023/04/19 08:53:13;;;;;;;5.80;3.30;;;;;;;13.75;74.68;94438.97;4991647;28;20212;-76
2023/04/19 08:55:40;;;;;;;5.17;3.13;;;;;;;13.85;73.36;94439.13;5003807;28;20172;-77
2023/04/19 08:58:06;;;;;;;3.47;2.40;;;;;;;13.79;74.06;94432.16;4991862;28;20216;-75
2023/04/19 09:00:32;;;;;;;2.30;2.10;;;;;;;13.96;73.65;94440.91;5010273;28;20659;-74
2023/04/19 09:02:58;;;;;;;3.17;2.57;;;;;;;14.05;72.96;94437.84;4997503;28;20170;-77
2023/04/19 09:05:24;;;;;;;6.90;2.80;;;;;;;14.08;73.17;94406.41;5008466;28;20195;-77
2023/04/19 09:07:50;;;;;;;2.57;2.10;;;;;;;14.45;73.11;94435.00;5022590;28;20667;-77
2023/04/19 09:10:19;;;;;;;6.10;3.43;;;;;;;14.50;71.27;94427.13;5015167;28;20172;-77
2023/04/19 09:13:12;;;;;;;3.33;2.30;;;;;;;14.47;71.92;94424.97;5000699;28;20216;-77
2023/04/19 09:15:40;;;;;;;2.60;2.10;;;;;;;14.64;71.58;94428.34;4993425;28;20194;-77
2023/04/19 09:18:08;;;;;;;2.20;1.90;;;;;;;14.88;71.65;94424.41;4992121;28;20192;-77
2023/04/19 09:20:42;;;;;;;4.17;2.47;;;;;;;15.15;71.43;94411.19;5010165;28;20245;-77
2023/04/19 09:23:11;;;;;;;3.50;2.20;;;;;;;15.46;67.85;94422.91;5012389;28;20179;-77
2023/04/19 09:25:37;;;;;;;6.03;3.43;;;;;;;15.64;68.70;94419.13;5006980;28;20539;-77
2023/04/19 09:28:13;;;;;;;3.37;2.73;;;;;;;15.72;67.10;94422.09;5007726;28;20208;-77
2023/04/19 09:30:40;;;;;;;2.97;2.20;;;;;;;15.82;67.90;94430.16;5001390;28;20203;-77
2023/04/19 09:33:06;;;;;;;8.40;3.10;;;;;;;15.87;66.39;94413.44;4995361;28;20339;-76
2023/04/19 09:35:48;;;;;;;2.60;2.10;;;;;;;16.15;65.73;94426.41;5006274;28;20176;-76
2023/04/19 09:38:15;;;;;;;2.70;2.38;;;;;;;16.28;68.06;94403.91;5014207;28;20659;-76
2023/04/19 09:40:41;;;;;;;2.45;1.90;;;;;;;16.38;64.56;94409.28;4996674;28;20208;-76
2023/04/19 09:43:07;;;;;;;2.42;2.22;;;;;;;16.88;65.09;94429.19;5005495;28;20212;-76
2023/04/19 09:45:43;;;;;;;5.35;2.20;;;;;;;17.04;63.69;94422.88;5028413;28;20206;-76
2023/04/19 09:48:10;;;;;;;4.15;2.35;;;;;;;17.38;63.03;94422.44;5013001;28;20263;-76
2023/04/19 09:50:49;;;;;;;3.75;1.98;;;;;;;17.52;62.70;94419.00;5013003;28;20180;-76
2023/04/19 09:53:16;;;;;;;2.17;1.98;;;;;;;17.51;60.88;94417.41;5012721;28;20679;-76
2023/04/19 09:55:45;;;;;;;2.15;1.80;;;;;;;17.51;61.42;94416.59;5006858;28;20211;-76
2023/04/19 09:58:10;;;;;;;1.92;1.70;;;;;;;17.51;59.73;94411.28;5003210;28;20185;-76
2023/04/19 10:00:37;;;;;;;2.60;2.03;;;;;;;17.44;60.38;94395.56;5003226;28;20232;-76
2023/04/19 10:03:05;;;;;;;2.25;2.00;;;;;;;17.36;62.39;94401.41;5007272;28;20991;-76
2023/04/19 10:05:31;;;;;;;5.20;3.03;;;;;;;17.09;61.97;94403.47;4992489;28;20177;-76
2023/04/19 10:08:01;;;;;;;3.22;2.72;;;;;;;16.87;62.74;94375.22;5003379;28;20180;-76
2023/04/19 10:10:29;;;;;;;4.13;2.20;;;;;;;16.96;63.42;94408.22;5005866;28;20187;-76
2023/04/19 10:12:56;;;;;;;4.47;2.17;;;;;;;16.79;60.97;94394.34;5005273;28;20254;-76
2023/04/19 10:15:22;;;;;;;4.32;2.47;;;;;;;16.82;63.33;94395.69;5005283;28;20225;-76
2023/04/19 10:17:48;;;;;;;2.75;2.45;;;;;;;16.92;66.56;94385.09;5004785;28;20248;-76
2023/04/19 10:20:22;;;;;;;3.42;2.03;;;;;;;16.85;62.78;94389.84;5006236;28;20307;-76
2023/04/19 10:22:48;;;;;;;3.58;2.50;;;;;;;16.76;63.24;94378.91;5003122;28;20567;-76
2023/04/19 10:25:15;;;;;;;7.57;2.20;;;;;;;16.91;63.43;94391.47;5003380;28;20168;-76
2023/04/19 10:27:45;;;;;;;2.55;2.30;;;;;;;17.01;64.34;94386.19;5001909;28;20180;-76
2023/04/19 10:30:21;;;;;;;6.40;2.30;;;;;;;17.27;63.47;94384.38;5005888;28;20237;-76
2023/04/19 10:32:58;;;;;;;2.80;2.03;;;;;;;17.28;61.76;94375.34;5006246;28;20231;-76
2023/04/19 10:35:36;;;;;;;3.47;2.17;;;;;;;17.21;62.98;94380.88;4999430;28;20203;-76
2023/04/19 10:38:07;;;;;;;5.97;2.40;;;;;;;16.93;62.32;94382.16;5005173;28;20183;-76
2023/04/19 10:40:50;;;;;;;4.93;2.40;;;;;;;16.83;63.52;94379.47;5003811;28;20168;-76
2023/04/19 10:43:17;;;;;;;3.03;2.25;;;;;;;16.77;61.81;94375.22;4999619;28;20279;-76
2023/04/19 10:45:44;;;;;;;4.97;2.78;;;;;;;16.51;64.61;94333.63;5001072;28;20199;-76
2023/04/19 10:48:34;;;;;;;8.05;2.80;;;;;;;16.61;64.16;94365.56;5001616;28;20672;-76
2023/04/19 10:51:17;;;;;;;5.38;3.20;;;;;;;16.53;62.52;94363.38;5003663;28;20176;-76
2023/04/19 10:53:47;;;;;;;6.65;4.30;;;;;;;16.42;62.67;94349.25;5012480;28;20671;-76
2023/04/19 10:56:14;;;;;;;9.40;4.32;;;;;;;16.47;63.41;94359.91;5027588;28;20173;-76
2023/04/19 10:59:09;;;;;;;3.90;3.03;;;;;;;16.53;63.41;94344.75;5012611;28;20199;-76
2023/04/19 11:01:44;;;;;;;3.22;2.50;;;;;;;16.64;64.65;94343.78;5012926;28;20161;-76
2023/04/19 11:04:16;;;;;;;4.07;2.25;;;;;;;16.74;61.74;94357.13;5012720;28;20206;-76
2023/04/19 11:06:51;;;;;;;3.53;2.40;;;;;;;16.73;63.12;94355.50;5012604;28;20255;-76
2023/04/19 11:09:33;;;;;;;4.68;2.90;;;;;;;16.79;63.35;94345.69;5012593;28;20191;-76
2023/04/19 11:12:09;;;;;;;3.38;1.90;;;;;;;16.87;60.71;94345.16;5012518;28;20753;-76
2023/04/19 11:14:45;;;;;;;3.97;3.00;;;;;;;16.92;62.37;94339.88;5012501;28;20179;-76
2023/04/19 11:17:18;;;;;;;2.55;2.22;;;;;;;16.94;62.49;94341.22;5012329;28;20164;-76
2023/04/19 11:19:56;;;;;;;3.60;2.30;;;;;;;16.98;61.19;94344.94;5013332;28;20153;-77
2023/04/19 11:22:38;;;;;;;2.60;1.80;;;;;;;17.09;59.96;94345.75;5012885;28;20172;-78
2023/04/19 11:25:18;;;;;;;2.38;2.17;;;;;;;17.17;61.14;94333.81;5012911;28;20589;-76
2023/04/19 11:27:51;;;;;;;3.83;2.50;;;;;;;17.34;60.89;94345.00;5012984;28;20251;-77
2023/04/19 11:30:21;;;;;;;3.13;2.08;;;;;;;17.38;60.23;94338.09;5012516;28;20544;-76
2023/04/19 11:32:47;;;;;;;2.33;2.13;;;;;;;17.50;59.35;94337.81;5011588;28;20200;-76